createdAt,value
2023-04-27T00:00:49.502Z,19.70
2023-04-27T00:03:52.212Z,16.90
2023-04-27T00:06:54.182Z,17.90
2023-04-27T00:09:56.257Z,19.50
2023-04-27T00:12:58.484Z,21.30
2023-04-27T00:16:01.267Z,22.10
2023-04-27T00:19:03.268Z,21.30
2023-04-27T00:22:05.025Z,20.10
2023-04-27T00:25:07.480Z,18.90
2023-04-27T00:28:10.173Z,19.60
2023-04-27T00:34:13.598Z,17.80
2023-04-27T00:40:17.669Z,19.30
2023-04-27T00:46:20.918Z,20.40
2023-04-27T00:52:24.290Z,17.00
2023-04-27T00:55:26.110Z,17.20
2023-04-27T00:58:28.041Z,16.90
2023-04-27T01:01:30.665Z,18.30
2023-04-27T01:04:32.610Z,15.50
2023-04-27T01:07:38.169Z,16.40
2023-04-27T01:10:40.505Z,16.10
2023-04-27T01:13:42.262Z,15.60
2023-04-27T01:16:44.150Z,17.80
2023-04-27T01:22:47.495Z,16.20
2023-04-27T01:28:50.740Z,17.00
2023-04-27T01:34:54.023Z,15.40
2023-04-27T01:37:57.168Z,19.50
2023-04-27T01:40:58.789Z,18.20
2023-04-27T01:44:00.591Z,19.50
2023-04-27T01:50:04.774Z,21.40
2023-04-27T01:53:06.582Z,18.50
2023-04-27T01:59:10.050Z,19.60
2023-04-27T02:02:11.642Z,19.60
2023-04-27T02:08:15.190Z,19.80
2023-04-27T02:11:16.840Z,20.10
2023-04-27T02:17:20.296Z,20.20
2023-04-27T02:23:23.429Z,20.10
2023-04-27T02:29:30.609Z,20.20
2023-04-27T02:32:33.120Z,21.60
2023-04-27T02:35:34.856Z,24.10
2023-04-27T02:38:36.683Z,23.70
2023-04-27T02:41:38.702Z,22.90
2023-04-27T02:44:40.528Z,23.70
2023-04-27T02:53:46.384Z,23.60
2023-04-27T02:56:48.269Z,25.10
2023-04-27T03:02:51.712Z,26.00
2023-04-27T03:05:53.595Z,25.20
2023-04-27T03:08:55.236Z,24.90
2023-04-27T03:14:58.448Z,25.90
2023-04-27T03:21:08.974Z,24.50
2023-04-27T03:24:10.749Z,25.50
2023-04-27T03:27:12.369Z,25.00
2023-04-27T03:33:15.821Z,24.00
2023-04-27T03:36:20.542Z,24.80
2023-04-27T03:39:22.649Z,24.60
2023-04-27T03:42:24.306Z,25.50
2023-04-27T03:45:29.221Z,23.80
2023-04-27T03:48:31.031Z,21.80
2023-04-27T03:51:32.862Z,22.40
2023-04-27T03:57:36.109Z,38.10
2023-04-27T04:03:39.761Z,380.70
2023-04-27T04:06:41.641Z,257.50
2023-04-27T04:09:46.718Z,68.20
2023-04-27T04:15:50.307Z,59.50
2023-04-27T04:21:53.537Z,46.90
2023-04-27T04:24:55.178Z,57.10
2023-04-27T04:27:56.806Z,46.30
2023-04-27T04:34:01.415Z,41.80
2023-04-27T04:37:03.146Z,33.50
2023-04-27T04:43:07.238Z,30.60
2023-04-27T04:46:08.982Z,29.90
2023-04-27T04:52:12.863Z,29.10
2023-04-27T04:58:16.246Z,24.30
2023-04-27T05:04:19.730Z,23.90
2023-04-27T05:07:24.637Z,25.30
2023-04-27T05:10:26.815Z,23.20
2023-04-27T05:13:28.757Z,24.40
2023-04-27T05:16:30.734Z,23.90
2023-04-27T05:19:32.468Z,21.60
2023-04-27T05:22:34.147Z,21.50
2023-04-27T05:28:38.197Z,20.70
2023-04-27T05:31:39.884Z,21.10
2023-04-27T05:34:41.562Z,20.50
2023-04-27T05:37:46.271Z,20.20
2023-04-27T05:40:47.959Z,18.70
2023-04-27T05:43:49.874Z,18.10
2023-04-27T05:46:51.485Z,16.70
2023-04-27T05:49:53.216Z,16.30
2023-04-27T05:52:54.862Z,16.30
2023-04-27T05:55:57.088Z,14.40
2023-04-27T05:58:59.993Z,14.90
2023-04-27T06:02:03.633Z,14.60
2023-04-27T06:05:05.722Z,14.40
2023-04-27T06:08:07.503Z,15.10
2023-04-27T06:11:09.139Z,13.90
2023-04-27T06:14:10.844Z,13.30
2023-04-27T06:17:12.410Z,13.70
2023-04-27T06:20:14.085Z,14.90
2023-04-27T06:23:15.662Z,15.20
2023-04-27T06:26:17.348Z,15.50
2023-04-27T06:29:18.911Z,13.80
2023-04-27T06:32:20.657Z,15.50
2023-04-27T06:35:22.457Z,15.70
2023-04-27T06:38:24.165Z,15.80
2023-04-27T06:41:27.065Z,14.90
2023-04-27T06:44:28.705Z,13.40
2023-04-27T06:47:30.506Z,14.40
2023-04-27T06:50:32.089Z,14.80
2023-04-27T06:53:34.075Z,12.30
2023-04-27T06:56:36.121Z,13.70
2023-04-27T06:59:37.904Z,12.70
2023-04-27T07:02:39.601Z,12.70
2023-04-27T07:05:41.469Z,12.50
2023-04-27T07:08:43.334Z,11.80
2023-04-27T07:11:45.122Z,12.70
2023-04-27T07:14:46.694Z,10.10
2023-04-27T07:17:48.547Z,10.30
2023-04-27T07:20:50.219Z,10.20
2023-04-27T07:23:53.459Z,7.60
2023-04-27T07:26:55.803Z,8.70
2023-04-27T07:29:57.501Z,8.90
2023-04-27T07:32:59.107Z,9.10
2023-04-27T07:36:01.726Z,9.20
2023-04-27T07:39:04.084Z,6.90
2023-04-27T07:42:05.742Z,8.30
2023-04-27T07:45:08.979Z,7.10
2023-04-27T07:48:10.626Z,7.20
2023-04-27T07:51:12.232Z,7.60
2023-04-27T07:54:13.940Z,6.90
2023-04-27T07:57:15.603Z,7.60
2023-04-27T08:00:17.464Z,7.20
2023-04-27T08:03:19.596Z,7.60
2023-04-27T08:06:22.099Z,7.20
2023-04-27T08:09:24.148Z,7.80
2023-04-27T08:12:25.789Z,7.70
2023-04-27T08:15:27.643Z,8.70
2023-04-27T08:18:29.571Z,8.80
2023-04-27T08:21:31.298Z,8.80
2023-04-27T08:24:33.036Z,9.80
2023-04-27T08:27:39.081Z,9.80
2023-04-27T08:30:43.822Z,9.40
2023-04-27T08:33:45.700Z,10.50
2023-04-27T08:36:47.326Z,10.60
2023-04-27T08:39:48.944Z,10.60
2023-04-27T08:42:58.517Z,10.20
2023-04-27T08:46:00.198Z,9.10
2023-04-27T08:49:02.201Z,10.40
2023-04-27T08:52:04.780Z,9.60
2023-04-27T08:55:07.590Z,9.90
2023-04-27T08:58:09.546Z,8.60
2023-04-27T09:01:11.431Z,8.70
2023-04-27T09:04:13.394Z,9.00
2023-04-27T09:07:17.345Z,8.60
2023-04-27T09:10:19.169Z,9.40
2023-04-27T09:13:20.919Z,8.50
2023-04-27T09:16:27.207Z,7.50
2023-04-27T09:19:30.564Z,8.00
2023-04-27T09:22:32.311Z,7.60
2023-04-27T09:25:34.271Z,8.00
2023-04-27T09:28:39.164Z,7.60
2023-04-27T09:31:41.060Z,8.60
2023-04-27T09:34:43.125Z,7.50
2023-04-27T09:37:44.893Z,7.30
2023-04-27T09:40:47.480Z,7.50
2023-04-27T09:43:49.175Z,7.00
2023-04-27T09:46:51.747Z,7.40
2023-04-27T09:49:53.505Z,7.50
2023-04-27T09:52:55.136Z,7.60
2023-04-27T09:56:13.712Z,6.40
2023-04-27T09:59:49.123Z,6.10
2023-04-27T10:03:09.257Z,6.50
2023-04-27T10:06:45.298Z,6.70
2023-04-27T10:09:49.040Z,6.50
2023-04-27T10:12:58.498Z,6.20
2023-04-27T10:16:15.264Z,6.10
2023-04-27T10:19:17.044Z,6.30
2023-04-27T10:22:18.712Z,5.90
2023-04-27T10:25:25.303Z,5.70
2023-04-27T10:28:26.911Z,5.90
2023-04-27T10:31:29.181Z,5.60
2023-04-27T10:34:34.971Z,5.50
2023-04-27T10:37:40.828Z,5.60
2023-04-27T10:40:44.715Z,5.10
2023-04-27T10:43:46.334Z,4.90
2023-04-27T10:46:55.526Z,4.70
2023-04-27T10:49:57.424Z,4.80
2023-04-27T10:53:06.844Z,5.00
2023-04-27T10:56:08.722Z,6.40
2023-04-27T10:59:10.787Z,6.30
2023-04-27T11:02:12.730Z,6.60
2023-04-27T11:05:19.497Z,6.90
2023-04-27T11:08:21.137Z,6.50
2023-04-27T11:11:23.178Z,6.90
2023-04-27T11:14:24.829Z,6.70
2023-04-27T11:17:30.189Z,5.80
2023-04-27T11:20:31.907Z,6.40
2023-04-27T11:23:33.867Z,6.30
2023-04-27T11:26:35.794Z,6.30
2023-04-27T11:29:38.568Z,5.40
2023-04-27T11:32:40.347Z,5.70
2023-04-27T11:35:42.090Z,5.60
2023-04-27T11:38:43.741Z,5.60
2023-04-27T11:41:45.504Z,6.00
2023-04-27T11:44:52.232Z,5.50
2023-04-27T11:47:54.058Z,4.80
2023-04-27T11:50:58.205Z,4.40
2023-04-27T11:54:06.793Z,26.00
2023-04-27T11:57:10.183Z,5.80
2023-04-27T12:00:12.153Z,6.10
2023-04-27T12:03:14.248Z,5.60
2023-04-27T12:06:32.148Z,5.90
2023-04-27T12:09:34.948Z,6.00
2023-04-27T12:12:36.646Z,5.60
2023-04-27T12:15:39.026Z,6.60
2023-04-27T12:18:41.323Z,7.00
2023-04-27T12:21:43.248Z,6.90
2023-04-27T12:24:44.889Z,6.00
2023-04-27T12:27:46.934Z,6.20
2023-04-27T12:30:48.585Z,6.70
2023-04-27T12:33:50.478Z,6.80
2023-04-27T12:36:52.365Z,7.00
2023-04-27T12:39:54.120Z,7.20
2023-04-27T12:42:55.735Z,6.50
2023-04-27T12:45:57.491Z,6.70
2023-04-27T12:48:59.261Z,6.40
2023-04-27T12:52:01.053Z,6.20
2023-04-27T12:55:02.803Z,6.70
2023-04-27T12:58:04.447Z,6.20
2023-04-27T13:01:06.041Z,6.20
2023-04-27T13:04:07.886Z,6.50
2023-04-27T13:07:09.867Z,7.50
2023-04-27T13:10:11.564Z,6.50
2023-04-27T13:13:13.293Z,6.50
2023-04-27T13:16:14.991Z,6.80
2023-04-27T13:19:16.659Z,6.10
2023-04-27T13:22:18.404Z,5.90
2023-04-27T13:25:20.013Z,6.30
2023-04-27T13:28:21.682Z,6.70
2023-04-27T13:31:23.422Z,7.80
2023-04-27T13:34:25.083Z,6.50
2023-04-27T13:37:26.682Z,6.70
2023-04-27T13:40:29.380Z,6.40
2023-04-27T13:43:31.191Z,6.30
2023-04-27T13:46:32.838Z,6.00
2023-04-27T13:49:34.743Z,6.20
2023-04-27T13:52:37.696Z,6.50
2023-04-27T13:55:39.386Z,6.70
2023-04-27T13:58:41.133Z,6.20
2023-04-27T14:01:42.841Z,6.00
2023-04-27T14:04:44.587Z,6.10
2023-04-27T14:07:46.193Z,6.30
2023-04-27T14:10:48.341Z,6.10
2023-04-27T14:13:50.044Z,6.60
2023-04-27T14:16:53.030Z,7.20
2023-04-27T14:19:54.735Z,6.60
2023-04-27T14:22:58.390Z,6.40
2023-04-27T14:26:00.688Z,6.90
2023-04-27T14:29:02.326Z,6.70
2023-04-27T14:32:04.199Z,6.00
2023-04-27T14:35:06.314Z,5.90
2023-04-27T14:38:08.216Z,5.80
2023-04-27T14:41:09.871Z,6.50
2023-04-27T14:44:11.520Z,7.80
2023-04-27T14:47:13.242Z,8.00
2023-04-27T14:50:15.031Z,6.50
2023-04-27T14:53:16.700Z,6.30
2023-04-27T14:56:18.521Z,6.30
2023-04-27T14:59:20.174Z,7.20
2023-04-27T15:02:21.824Z,6.90
2023-04-27T15:05:23.414Z,6.90
2023-04-27T15:08:25.110Z,6.80
2023-04-27T15:11:26.777Z,6.90
2023-04-27T15:14:28.626Z,8.30
2023-04-27T15:17:30.371Z,6.90
2023-04-27T15:20:32.011Z,7.00
2023-04-27T15:23:33.714Z,6.50
2023-04-27T15:26:35.382Z,7.30
2023-04-27T15:29:37.470Z,7.90
2023-04-27T15:32:39.267Z,7.90
2023-04-27T15:35:41.026Z,6.80
2023-04-27T15:38:42.644Z,6.40
2023-04-27T15:41:44.329Z,6.70
2023-04-27T15:44:46.031Z,6.90
2023-04-27T15:47:47.902Z,6.70
2023-04-27T15:50:49.652Z,8.20
2023-04-27T15:53:51.417Z,6.70
2023-04-27T15:56:53.055Z,6.90
2023-04-27T15:59:54.746Z,7.20
2023-04-27T16:02:56.592Z,7.80
2023-04-27T16:05:58.442Z,7.40
2023-04-27T16:09:00.871Z,7.60
2023-04-27T16:12:02.626Z,9.10
2023-04-27T16:15:04.650Z,9.10
2023-04-27T16:18:06.310Z,9.40
2023-04-27T16:21:08.048Z,8.90
2023-04-27T16:24:09.705Z,8.60
2023-04-27T16:27:11.507Z,8.10
2023-04-27T16:30:13.383Z,7.70
2023-04-27T16:33:15.563Z,8.00
2023-04-27T16:36:17.231Z,8.40
2023-04-27T16:39:18.847Z,7.70
2023-04-27T16:42:20.771Z,8.40
2023-04-27T16:45:22.448Z,8.90
2023-04-27T16:48:24.101Z,8.00
2023-04-27T16:51:25.699Z,7.30
2023-04-27T16:54:27.313Z,6.80
2023-04-27T16:57:28.997Z,5.70
2023-04-27T17:00:30.617Z,6.10
2023-04-27T17:03:32.306Z,5.80
2023-04-27T17:06:34.022Z,5.60
2023-04-27T17:09:35.837Z,6.00
2023-04-27T17:12:37.961Z,6.20
2023-04-27T17:15:39.697Z,5.60
2023-04-27T17:18:41.879Z,5.50
2023-04-27T17:21:43.659Z,5.70
2023-04-27T17:24:45.276Z,5.70
2023-04-27T17:27:46.959Z,5.50
2023-04-27T17:30:48.828Z,5.70
2023-04-27T17:33:50.480Z,5.70
2023-04-27T17:36:52.194Z,5.90
2023-04-27T17:39:53.784Z,5.90
2023-04-27T17:42:55.470Z,6.80
2023-04-27T17:48:58.724Z,7.10
2023-04-27T17:52:00.329Z,9.20
2023-04-27T18:01:07.068Z,7.80
2023-04-27T18:04:08.863Z,8.40
2023-04-27T18:07:10.573Z,8.70
2023-04-27T18:13:14.020Z,7.50
2023-04-27T18:16:15.671Z,8.30
2023-04-27T18:22:19.472Z,14.80
2023-04-27T18:25:21.301Z,16.40
2023-04-27T18:28:22.959Z,19.50
2023-04-27T18:34:26.168Z,16.00
2023-04-27T18:37:28.416Z,15.90
2023-04-27T18:40:30.536Z,17.90
2023-04-27T18:43:34.640Z,18.40
2023-04-27T18:46:36.284Z,23.10
2023-04-27T18:52:39.701Z,28.30
2023-04-27T18:55:41.452Z,22.50
2023-04-27T19:01:44.777Z,15.80
2023-04-27T19:04:56.866Z,20.20
2023-04-27T19:08:03.708Z,18.50
2023-04-27T19:14:07.127Z,15.70
2023-04-27T19:23:12.661Z,14.60
2023-04-27T19:26:14.578Z,15.50
2023-04-27T19:29:16.724Z,24.80
2023-04-27T19:32:19.284Z,15.60
2023-04-27T19:35:21.103Z,18.20
2023-04-27T19:38:22.866Z,19.90
2023-04-27T19:44:26.133Z,28.40
2023-04-27T19:47:27.737Z,25.00
2023-04-27T19:53:31.099Z,85.10
2023-04-27T19:59:34.338Z,34.90
2023-04-27T20:02:36.162Z,31.20
2023-04-27T20:05:38.476Z,26.10
2023-04-27T20:08:40.283Z,18.20
2023-04-27T20:11:42.015Z,24.10
2023-04-27T20:17:45.305Z,19.80
2023-04-27T20:23:48.785Z,21.70
2023-04-27T20:26:50.603Z,21.30
2023-04-27T20:32:53.948Z,14.40
2023-04-27T20:39:02.744Z,16.60
2023-04-27T20:45:07.048Z,25.00
2023-04-27T20:48:08.733Z,25.70
2023-04-27T20:54:12.121Z,20.30
2023-04-27T20:57:14.080Z,26.30
2023-04-27T21:00:16.369Z,42.10
2023-04-27T21:03:18.222Z,39.70
2023-04-27T21:06:22.269Z,36.40
2023-04-27T21:09:24.139Z,31.60
2023-04-27T21:15:27.568Z,30.40
2023-04-27T21:18:30.807Z,28.90
2023-04-27T21:21:32.734Z,27.50
2023-04-27T21:27:36.121Z,28.60
2023-04-27T21:30:37.820Z,27.70
2023-04-27T21:33:39.640Z,30.10
2023-04-27T21:36:41.237Z,28.10
2023-04-27T21:39:42.917Z,28.50
2023-04-27T21:42:44.547Z,29.10
2023-04-27T21:45:46.147Z,28.80
2023-04-27T21:51:49.513Z,29.20
2023-04-27T21:54:51.223Z,30.80
2023-04-27T21:57:52.913Z,27.10
2023-04-27T22:00:54.692Z,26.90
2023-04-27T22:07:18.308Z,26.80
2023-04-27T22:10:20.121Z,26.70
2023-04-27T22:16:23.341Z,28.50
2023-04-27T22:19:25.137Z,28.30
2023-04-27T22:25:28.520Z,23.70
2023-04-27T22:31:31.887Z,18.30
2023-04-27T22:34:33.907Z,21.60
2023-04-27T22:37:35.954Z,20.70
2023-04-27T22:43:39.573Z,21.30
2023-04-27T22:49:44.505Z,19.40
2023-04-27T22:52:46.248Z,20.20
2023-04-27T22:55:48.292Z,21.80
2023-04-27T22:58:49.894Z,24.40
2023-04-27T23:01:51.960Z,23.50
2023-04-27T23:04:53.563Z,28.50
2023-04-27T23:10:57.012Z,25.50
2023-04-27T23:17:00.504Z,25.80
2023-04-27T23:23:05.871Z,20.20
2023-04-27T23:26:14.384Z,20.10
2023-04-27T23:29:16.180Z,18.40
2023-04-27T23:35:19.754Z,17.50
2023-04-27T23:41:22.990Z,20.10
2023-04-27T23:44:24.641Z,22.10
2023-04-27T23:47:26.303Z,27.60
2023-04-27T23:50:27.921Z,22.10
2023-04-27T23:53:30.235Z,17.80
2023-04-27T23:56:31.946Z,24.00
2023-04-27T23:59:34.676Z,24.20
